Haifa, Israel

10:28 PM IST on February 27, 2017 (GMT +0200)
Haifa | | Change Station

Elev 676 ft 32.81 °N, 34.99 °E | Updated 6 minutes ago

Clear
Clear
69.8 °F
Feels Like 69.8 °F
N
11.0
Wind Variable Wind from SE
Gusts 22.0 mph

Today
High -- | Low -- °F
--% Chance of Precip.
Yesterday
High -- | Low -- °F
Precip. -- in
Pressure 29.92 in
Visibility -9999.0 miles
Clouds
Dew Point 27 °F
Humidity 20%
Rainfall 0.00 in
Snow Depth Not available.
6:10 AM 5:35 PM
New Moon, 2% visible
METAR LLHA 271750Z VRB03KT CAVOK 16/11 Q1013
Pressure 29.92 in
Visibility -9999.0 miles
Clouds
Dew Point 27 °F
Humidity 20%
Rainfall 0.00 in
Snow Depth Not available.
6:10 AM 5:35 PM
New Moon, 2% visible
METAR LLHA 271750Z VRB03KT CAVOK 16/11 Q1013

Get Your Daily Forecast Email!

Thanks for signing up!

Be on the lookout for a verification email in your inbox.

You'll start receiving the daily forecast at 8 AM.

×

10-Day Weather Forecast

No radar image for this location.
×

Almanac

Astronomy

Feb. 27, 2017 Rise Set
Actual Time
Civil Twilight
Nautical Twilight
Astronomical Twilight
Moon
Length of Visible Light
Length of Day
Tomorrow will be .
, % of the Moon is Illuminated

Today's Extremes

Country Highs Country Lows

Community

WunderPhotos

Upload Photos

1,962,540 photos uploaded!

WunderBlog® & News

Nearby

Air Quality

  Air Quality AQ Index Pollutant
Not available.

Snow Depth

Station Depth Elevation

Earthquake Activity

City Distance Mag. Time & Date
Minimum magnitude displayed is 2.5.

Coastal Water Temperatures

Place Temperature

Stations

Nearby Weather Stations

Station Location Temp. Windchill Dew Point Humidity Wind Precip. Elev Updated Type